sensor_id;sensor_type;location;lat;lon;timestamp;pressure;altitude;pressure_sealevel;temperature
18474;BMP180;30265;52.408;13.500;2023-05-21T00:02:30;102289.00;;;20.20
18474;BMP180;30265;52.408;13.500;2023-05-21T00:12:53;102283.00;;;20.20
18474;BMP180;30265;52.408;13.500;2023-05-21T00:23:21;102283.00;;;20.20
18474;BMP180;30265;52.408;13.500;2023-05-21T00:33:45;102259.00;;;20.00
18474;BMP180;30265;52.408;13.500;2023-05-21T00:44:09;102265.00;;;19.80
18474;BMP180;30265;52.408;13.500;2023-05-21T00:54:34;102261.00;;;19.80
18474;BMP180;30265;52.408;13.500;2023-05-21T01:04:58;102251.00;;;19.80
18474;BMP180;30265;52.408;13.500;2023-05-21T01:15:20;102254.00;;;19.60
18474;BMP180;30265;52.408;13.500;2023-05-21T01:25:43;102261.00;;;19.30
18474;BMP180;30265;52.408;13.500;2023-05-21T01:36:11;102253.00;;;19.20
18474;BMP180;30265;52.408;13.500;2023-05-21T01:46:36;102257.00;;;19.00
18474;BMP180;30265;52.408;13.500;2023-05-21T01:56:58;102250.00;;;18.90
18474;BMP180;30265;52.408;13.500;2023-05-21T02:07:27;102240.00;;;18.90
18474;BMP180;30265;52.408;13.500;2023-05-21T02:17:53;102229.00;;;19.00
18474;BMP180;30265;52.408;13.500;2023-05-21T02:28:17;102233.00;;;19.20
18474;BMP180;30265;52.408;13.500;2023-05-21T02:38:39;102232.00;;;19.20
18474;BMP180;30265;52.408;13.500;2023-05-21T02:49:04;102225.00;;;19.30
18474;BMP180;30265;52.408;13.500;2023-05-21T02:59:25;102206.00;;;19.40
18474;BMP180;30265;52.408;13.500;2023-05-21T03:09:49;102201.00;;;19.40
18474;BMP180;30265;52.408;13.500;2023-05-21T03:20:11;102207.00;;;19.40
18474;BMP180;30265;52.408;13.500;2023-05-21T03:30:37;102198.00;;;19.40
18474;BMP180;30265;52.408;13.500;2023-05-21T03:41:19;102208.00;;;19.90
18474;BMP180;30265;52.408;13.500;2023-05-21T03:51:51;102206.00;;;20.00
18474;BMP180;30265;52.408;13.500;2023-05-21T04:02:13;102191.00;;;20.10
18474;BMP180;30265;52.408;13.500;2023-05-21T04:12:37;102201.00;;;20.60
18474;BMP180;30265;52.408;13.500;2023-05-21T04:23:00;102194.00;;;20.90
18474;BMP180;30265;52.408;13.500;2023-05-21T04:33:24;102188.00;;;21.30
18474;BMP180;30265;52.408;13.500;2023-05-21T04:43:46;102181.00;;;21.50
18474;BMP180;30265;52.408;13.500;2023-05-21T04:54:16;102178.00;;;21.90
18474;BMP180;30265;52.408;13.500;2023-05-21T05:04:38;102187.00;;;22.20
18474;BMP180;30265;52.408;13.500;2023-05-21T05:15:05;102182.00;;;22.50
18474;BMP180;30265;52.408;13.500;2023-05-21T05:25:28;102170.00;;;22.90
18474;BMP180;30265;52.408;13.500;2023-05-21T05:35:52;102175.00;;;23.10
18474;BMP180;30265;52.408;13.500;2023-05-21T05:46:14;102179.00;;;23.30
18474;BMP180;30265;52.408;13.500;2023-05-21T05:56:39;102173.00;;;23.20
18474;BMP180;30265;52.408;13.500;2023-05-21T06:07:00;102166.00;;;23.40
18474;BMP180;30265;52.408;13.500;2023-05-21T06:17:24;102162.00;;;23.50
18474;BMP180;30265;52.408;13.500;2023-05-21T06:27:46;102154.00;;;23.60
18474;BMP180;30265;52.408;13.500;2023-05-21T06:38:15;102144.00;;;23.90
18474;BMP180;30265;52.408;13.500;2023-05-21T06:48:37;102140.00;;;24.20
18474;BMP180;30265;52.408;13.500;2023-05-21T06:59:00;102137.00;;;24.70
18474;BMP180;30265;52.408;13.500;2023-05-21T07:09:23;102119.00;;;25.00
18474;BMP180;30265;52.408;13.500;2023-05-21T07:19:47;102126.00;;;25.70
18474;BMP180;30265;52.408;13.500;2023-05-21T07:30:10;102117.00;;;25.80
18474;BMP180;30265;52.408;13.500;2023-05-21T07:40:33;102095.00;;;26.70
18474;BMP180;30265;52.408;13.500;2023-05-21T07:50:57;102092.00;;;27.40
18474;BMP180;30265;52.408;13.500;2023-05-21T08:01:21;102073.00;;;28.00
18474;BMP180;30265;52.408;13.500;2023-05-21T08:11:44;102054.00;;;28.30
18474;BMP180;30265;52.408;13.500;2023-05-21T08:22:07;102064.00;;;28.50
18474;BMP180;30265;52.408;13.500;2023-05-21T08:32:34;102064.00;;;28.90
18474;BMP180;30265;52.408;13.500;2023-05-21T08:42:57;102047.00;;;30.30
18474;BMP180;30265;52.408;13.500;2023-05-21T08:53:28;102032.00;;;31.00
18474;BMP180;30265;52.408;13.500;2023-05-21T09:03:55;102038.00;;;30.40
18474;BMP180;30265;52.408;13.500;2023-05-21T09:14:34;102017.00;;;31.30
18474;BMP180;30265;52.408;13.500;2023-05-21T09:25:06;102022.00;;;31.70
18474;BMP180;30265;52.408;13.500;2023-05-21T09:35:28;102012.00;;;30.60
18474;BMP180;30265;52.408;13.500;2023-05-21T09:45:54;102006.00;;;31.10
18474;BMP180;30265;52.408;13.500;2023-05-21T09:56:23;102007.00;;;31.60
18474;BMP180;30265;52.408;13.500;2023-05-21T10:06:46;101994.00;;;31.80
18474;BMP180;30265;52.408;13.500;2023-05-21T10:17:11;101985.00;;;31.50
18474;BMP180;30265;52.408;13.500;2023-05-21T10:27:35;101966.00;;;32.10
18474;BMP180;30265;52.408;13.500;2023-05-21T10:37:57;101955.00;;;32.50
18474;BMP180;30265;52.408;13.500;2023-05-21T10:48:38;101941.00;;;33.10
18474;BMP180;30265;52.408;13.500;2023-05-21T10:59:24;101960.00;;;32.20
18474;BMP180;30265;52.408;13.500;2023-05-21T11:09:50;101945.00;;;32.70
18474;BMP180;30265;52.408;13.500;2023-05-21T11:20:12;101955.00;;;32.60
18474;BMP180;30265;52.408;13.500;2023-05-21T11:30:36;101945.00;;;32.80
18474;BMP180;30265;52.408;13.500;2023-05-21T11:41:01;101942.00;;;32.20
18474;BMP180;30265;52.408;13.500;2023-05-21T11:51:24;101924.00;;;33.10
18474;BMP180;30265;52.408;13.500;2023-05-21T12:01:48;101916.00;;;33.90
18474;BMP180;30265;52.408;13.500;2023-05-21T12:12:15;101903.00;;;33.80
18474;BMP180;30265;52.408;13.500;2023-05-21T12:22:39;101905.00;;;34.30
18474;BMP180;30265;52.408;13.500;2023-05-21T12:33:05;101901.00;;;33.90
18474;BMP180;30265;52.408;13.500;2023-05-21T12:43:32;101913.00;;;33.10
18474;BMP180;30265;52.408;13.500;2023-05-21T12:53:56;101887.00;;;33.20
18474;BMP180;30265;52.408;13.500;2023-05-21T13:04:18;101908.00;;;33.80
18474;BMP180;30265;52.408;13.500;2023-05-21T13:14:41;101914.00;;;33.00
18474;BMP180;30265;52.408;13.500;2023-05-21T13:25:03;101871.00;;;34.60
18474;BMP180;30265;52.408;13.500;2023-05-21T13:35:26;101905.00;;;33.30
18474;BMP180;30265;52.408;13.500;2023-05-21T13:45:59;101884.00;;;33.00
18474;BMP180;30265;52.408;13.500;2023-05-21T13:56:24;101880.00;;;33.70
18474;BMP180;30265;52.408;13.500;2023-05-21T14:06:45;101882.00;;;33.60
18474;BMP180;30265;52.408;13.500;2023-05-21T14:17:10;101877.00;;;33.50
18474;BMP180;30265;52.408;13.500;2023-05-21T14:27:32;101870.00;;;32.90
18474;BMP180;30265;52.408;13.500;2023-05-21T14:37:56;101889.00;;;33.00
18474;BMP180;30265;52.408;13.500;2023-05-21T14:48:18;101901.00;;;32.70
18474;BMP180;30265;52.408;13.500;2023-05-21T14:58:43;101891.00;;;33.00
18474;BMP180;30265;52.408;13.500;2023-05-21T15:09:05;101882.00;;;32.70
18474;BMP180;30265;52.408;13.500;2023-05-21T15:19:28;101884.00;;;32.80
18474;BMP180;30265;52.408;13.500;2023-05-21T15:29:50;101878.00;;;33.00
18474;BMP180;30265;52.408;13.500;2023-05-21T15:40:19;101879.00;;;32.20
18474;BMP180;30265;52.408;13.500;2023-05-21T15:50:45;101881.00;;;32.60
18474;BMP180;30265;52.408;13.500;2023-05-21T16:01:09;101886.00;;;32.10
18474;BMP180;30265;52.408;13.500;2023-05-21T16:11:34;101864.00;;;32.30
18474;BMP180;30265;52.408;13.500;2023-05-21T16:21:59;101863.00;;;32.20
18474;BMP180;30265;52.408;13.500;2023-05-21T16:32:22;101857.00;;;32.30
18474;BMP180;30265;52.408;13.500;2023-05-21T16:42:45;101856.00;;;32.40
18474;BMP180;30265;52.408;13.500;2023-05-21T16:53:07;101873.00;;;31.70
18474;BMP180;30265;52.408;13.500;2023-05-21T17:03:31;101884.00;;;31.40
18474;BMP180;30265;52.408;13.500;2023-05-21T17:13:54;101895.00;;;31.30
18474;BMP180;30265;52.408;13.500;2023-05-21T17:24:17;101904.00;;;30.80
18474;BMP180;30265;52.408;13.500;2023-05-21T17:34:38;101906.00;;;30.60
18474;BMP180;30265;52.408;13.500;2023-05-21T17:45:01;101909.00;;;30.20
18474;BMP180;30265;52.408;13.500;2023-05-21T17:55:23;101912.00;;;29.90
18474;BMP180;30265;52.408;13.500;2023-05-21T18:05:46;101935.00;;;29.70
18474;BMP180;30265;52.408;13.500;2023-05-21T18:16:08;101946.00;;;29.50
18474;BMP180;30265;52.408;13.500;2023-05-21T18:26:31;101946.00;;;29.20
18474;BMP180;30265;52.408;13.500;2023-05-21T18:36:52;101950.00;;;29.00
18474;BMP180;30265;52.408;13.500;2023-05-21T18:47:20;101953.00;;;28.70
18474;BMP180;30265;52.408;13.500;2023-05-21T18:57:49;101961.00;;;28.50
18474;BMP180;30265;52.408;13.500;2023-05-21T19:08:12;101971.00;;;28.20
18474;BMP180;30265;52.408;13.500;2023-05-21T19:18:35;101986.00;;;28.20
18474;BMP180;30265;52.408;13.500;2023-05-21T19:28:58;102006.00;;;27.90
18474;BMP180;30265;52.408;13.500;2023-05-21T19:39:20;102007.00;;;27.70
18474;BMP180;30265;52.408;13.500;2023-05-21T19:49:43;102004.00;;;27.60
18474;BMP180;30265;52.408;13.500;2023-05-21T20:00:08;102010.00;;;27.50
18474;BMP180;30265;52.408;13.500;2023-05-21T20:10:34;102011.00;;;27.40
18474;BMP180;30265;52.408;13.500;2023-05-21T20:20:56;102011.00;;;27.20
18474;BMP180;30265;52.408;13.500;2023-05-21T20:31:23;102016.00;;;27.00
18474;BMP180;30265;52.408;13.500;2023-05-21T20:41:46;102019.00;;;26.90
18474;BMP180;30265;52.408;13.500;2023-05-21T20:52:09;102018.00;;;26.70
18474;BMP180;30265;52.408;13.500;2023-05-21T21:02:58;102039.00;;;26.50
18474;BMP180;30265;52.408;13.500;2023-05-21T21:13:23;102026.00;;;26.40
18474;BMP180;30265;52.408;13.500;2023-05-21T21:23:44;102022.00;;;26.40
18474;BMP180;30265;52.408;13.500;2023-05-21T21:34:07;102032.00;;;26.30
18474;BMP180;30265;52.408;13.500;2023-05-21T21:44:29;102044.00;;;26.00
18474;BMP180;30265;52.408;13.500;2023-05-21T21:54:55;102051.00;;;25.90
18474;BMP180;30265;52.408;13.500;2023-05-21T22:05:17;102046.00;;;25.70
18474;BMP180;30265;52.408;13.500;2023-05-21T22:15:45;102055.00;;;25.40
18474;BMP180;30265;52.408;13.500;2023-05-21T22:26:08;102058.00;;;25.20
18474;BMP180;30265;52.408;13.500;2023-05-21T22:36:31;102051.00;;;25.20
18474;BMP180;30265;52.408;13.500;2023-05-21T22:46:53;102053.00;;;25.00
18474;BMP180;30265;52.408;13.500;2023-05-21T22:57:21;102051.00;;;24.90
18474;BMP180;30265;52.408;13.500;2023-05-21T23:07:44;102056.00;;;24.70
18474;BMP180;30265;52.408;13.500;2023-05-21T23:18:09;102054.00;;;24.70
18474;BMP180;30265;52.408;13.500;2023-05-21T23:28:30;102053.00;;;24.60
18474;BMP180;30265;52.408;13.500;2023-05-21T23:38:56;102043.00;;;24.50
18474;BMP180;30265;52.408;13.500;2023-05-21T23:49:18;102048.00;;;24.30
18474;BMP180;30265;52.408;13.500;2023-05-21T23:59:42;102048.00;;;24.10
